Time;durP1;ratioP1;P1;durP2;ratioP2;P2;SDS_P1;SDS_P2;PMS_P1;PMS_P2;Temp;Humidity;BMP_temperature;BMP_pressure;BME280_temperature;BME280_humidity;BME280_pressure;Samples;Min_cycle;Max_cycle;Signal;HPM_P1;HPM_P2
2022/09/02 00:01:09;;;;;;;3.20;0.40;;;13.60;99.90;;;;;;5142927;27;20113;-78
2022/09/02 00:03:35;;;;;;;1.20;0.20;;;13.60;99.90;;;;;;5148411;27;20042;-77
2022/09/02 00:06:03;;;;;;;0.85;0.20;;;13.70;99.90;;;;;;5157736;27;20035;-77
2022/09/02 00:08:32;;;;;;;1.58;0.25;;;13.70;99.90;;;;;;5157907;27;20039;-77
2022/09/02 00:11:05;;;;;;;4.57;0.60;;;13.60;99.90;;;;;;5152499;27;20054;-78
2022/09/02 00:13:32;;;;;;;4.20;0.32;;;13.50;99.90;;;;;;5142846;27;20045;-77
2022/09/02 00:15:57;;;;;;;1.33;0.30;;;13.50;99.90;;;;;;5157484;27;20043;-77
2022/09/02 00:18:25;;;;;;;0.55;0.20;;;13.40;99.90;;;;;;5156905;27;20042;-77
2022/09/02 00:20:50;;;;;;;4.38;0.45;;;13.30;99.90;;;;;;5144430;27;20039;-77
2022/09/02 00:23:16;;;;;;;0.70;0.20;;;13.30;99.90;;;;;;5152519;27;20046;-79
2022/09/02 00:25:43;;;;;;;1.73;0.30;;;13.20;99.90;;;;;;5148638;27;20043;-78
2022/09/02 00:28:10;;;;;;;0.82;0.20;;;13.10;99.90;;;;;;5156029;27;20042;-77
2022/09/02 00:30:36;;;;;;;1.88;0.30;;;13.10;99.90;;;;;;5156274;27;20117;-78
2022/09/02 00:33:03;;;;;;;4.32;0.30;;;13.10;99.90;;;;;;5149082;27;20035;-77
2022/09/02 00:35:29;;;;;;;1.45;0.32;;;13.10;99.90;;;;;;5155457;27;20542;-77
2022/09/02 00:37:55;;;;;;;1.33;0.20;;;13.10;99.90;;;;;;5156726;27;20393;-78
2022/09/02 00:40:22;;;;;;;1.83;0.55;;;13.10;99.90;;;;;;5158346;27;20114;-78
2022/09/02 00:42:48;;;;;;;1.20;0.25;;;13.10;99.90;;;;;;5130935;27;20043;-79
2022/09/02 00:45:14;;;;;;;2.72;0.30;;;13.10;99.90;;;;;;5158423;27;20046;-79
2022/09/02 00:47:40;;;;;;;1.77;0.20;;;13.20;99.90;;;;;;5141303;27;20065;-79
2022/09/02 00:50:10;;;;;;;1.75;0.20;;;13.20;99.90;;;;;;5120585;27;20039;-79
2022/09/02 00:52:43;;;;;;;2.35;0.40;;;13.20;99.90;;;;;;5132989;27;20039;-78
2022/09/02 00:55:18;;;;;;;4.60;0.57;;;13.20;99.90;;;;;;5120096;27;20035;-78
2022/09/02 00:57:51;;;;;;;3.15;0.35;;;13.20;99.90;;;;;;5103017;27;20191;-79
2022/09/02 01:00:24;;;;;;;1.45;0.60;;;13.20;99.90;;;;;;5120516;27;20054;-79
2022/09/02 01:02:57;;;;;;;0.98;0.20;;;13.20;99.90;;;;;;5131424;27;20145;-79
2022/09/02 01:05:25;;;;;;;0.52;0.30;;;13.20;99.90;;;;;;5157993;27;20068;-79
2022/09/02 01:07:53;;;;;;;1.02;0.20;;;13.20;99.90;;;;;;5138567;27;20131;-78
2022/09/02 01:10:26;;;;;;;2.40;0.30;;;13.10;99.90;;;;;;5129886;27;20125;-79
2022/09/02 01:12:57;;;;;;;1.13;0.20;;;13.10;99.90;;;;;;5131370;27;20410;-79
2022/09/02 01:15:23;;;;;;;2.80;0.28;;;13.10;99.90;;;;;;5140572;27;20053;-79
2022/09/02 01:17:50;;;;;;;1.95;0.40;;;13.10;99.90;;;;;;5139555;27;20049;-79
2022/09/02 01:20:23;;;;;;;3.22;0.30;;;13.00;99.90;;;;;;5121594;27;20501;-79
2022/09/02 01:22:50;;;;;;;0.63;0.20;;;13.10;99.90;;;;;;5129359;27;20047;-79
2022/09/02 01:25:31;;;;;;;1.10;0.40;;;13.10;99.90;;;;;;5118854;27;20078;-78
2022/09/02 01:28:03;;;;;;;1.27;0.28;;;13.10;99.90;;;;;;5102900;27;20443;-79
2022/09/02 01:30:29;;;;;;;1.23;0.47;;;13.10;99.90;;;;;;5121966;27;20112;-79
2022/09/02 01:32:55;;;;;;;0.60;0.30;;;13.10;99.90;;;;;;5132562;27;20051;-79
2022/09/02 01:35:21;;;;;;;0.70;0.30;;;13.10;99.90;;;;;;5136750;27;20373;-79
2022/09/02 01:37:47;;;;;;;1.75;0.40;;;13.10;99.90;;;;;;5117257;27;20039;-79
2022/09/02 01:40:16;;;;;;;1.40;0.40;;;13.10;99.90;;;;;;5119390;27;20095;-79
2022/09/02 01:42:43;;;;;;;3.05;0.50;;;13.00;99.90;;;;;;5131853;27;20043;-79
2022/09/02 01:45:09;;;;;;;2.47;0.85;;;12.90;99.90;;;;;;5139086;27;20043;-79
2022/09/02 01:47:36;;;;;;;2.47;0.22;;;12.90;99.90;;;;;;5138556;27;20046;-78
2022/09/02 01:50:04;;;;;;;0.82;0.45;;;12.90;99.90;;;;;;5138934;27;20057;-79
2022/09/02 01:52:30;;;;;;;1.42;0.40;;;12.80;99.90;;;;;;5116459;27;20046;-79
2022/09/02 01:54:56;;;;;;;0.75;0.30;;;12.80;99.90;;;;;;5128926;27;20471;-80
2022/09/02 01:57:24;;;;;;;1.10;0.40;;;12.80;99.90;;;;;;5110250;27;20485;-79
2022/09/02 01:59:51;;;;;;;1.08;0.50;;;12.80;99.90;;;;;;5135776;27;20499;-78
2022/09/02 02:02:18;;;;;;;1.83;0.40;;;12.90;99.90;;;;;;5134094;27;20104;-79
2022/09/02 02:04:44;;;;;;;1.85;0.40;;;12.90;99.90;;;;;;5131482;27;20499;-77
2022/09/02 02:07:13;;;;;;;1.67;0.30;;;12.80;99.90;;;;;;5131663;27;20042;-80
2022/09/02 02:09:39;;;;;;;0.70;0.30;;;12.80;99.90;;;;;;5118213;27;20066;-79
2022/09/02 02:12:05;;;;;;;2.15;0.30;;;12.80;99.90;;;;;;5130637;27;20038;-78
2022/09/02 02:14:30;;;;;;;2.65;0.47;;;12.80;99.90;;;;;;5128400;27;20481;-79
2022/09/02 02:16:56;;;;;;;2.25;0.40;;;12.80;99.90;;;;;;5134232;27;20045;-78
2022/09/02 02:19:22;;;;;;;1.15;0.40;;;12.80;99.90;;;;;;5134325;27;20475;-78
2022/09/02 02:21:47;;;;;;;0.93;0.73;;;12.80;99.90;;;;;;5133236;27;20050;-78
2022/09/02 02:24:13;;;;;;;2.17;0.38;;;12.80;99.90;;;;;;5124387;27;20035;-78
2022/09/02 02:26:39;;;;;;;1.10;0.40;;;12.70;99.90;;;;;;5134354;27;20492;-79
2022/09/02 02:29:05;;;;;;;0.68;0.30;;;12.70;99.90;;;;;;5113520;27;20039;-78
2022/09/02 02:31:31;;;;;;;1.75;0.30;;;12.70;99.90;;;;;;5117503;27;20136;-78
2022/09/02 02:33:57;;;;;;;2.30;0.50;;;12.70;99.90;;;;;;5121953;27;20087;-78
2022/09/02 02:36:22;;;;;;;1.63;0.38;;;12.60;99.90;;;;;;5113824;27;20122;-78
2022/09/02 02:38:48;;;;;;;2.45;0.55;;;12.60;99.90;;;;;;5117307;27;20040;-78
2022/09/02 02:41:14;;;;;;;2.40;0.68;;;12.60;99.90;;;;;;5124766;27;20034;-78
2022/09/02 02:43:40;;;;;;;1.42;0.47;;;12.50;99.90;;;;;;5120117;27;20037;-78
2022/09/02 02:46:06;;;;;;;2.67;0.43;;;12.50;99.90;;;;;;5130544;27;20053;-78
2022/09/02 02:48:33;;;;;;;2.75;0.45;;;12.40;99.90;;;;;;5140275;27;20552;-79
2022/09/02 02:50:59;;;;;;;1.13;0.57;;;12.30;99.90;;;;;;5113402;28;20035;-78
2022/09/02 02:53:28;;;;;;;1.95;0.75;;;12.30;99.90;;;;;;5113237;28;20484;-78
2022/09/02 02:55:54;;;;;;;0.88;0.40;;;12.30;99.90;;;;;;5120895;27;20043;-77
2022/09/02 02:58:20;;;;;;;3.30;0.50;;;12.20;99.90;;;;;;5125291;27;20034;-78
2022/09/02 03:00:45;;;;;;;0.90;0.40;;;12.20;99.90;;;;;;5120206;28;20039;-79
2022/09/02 03:03:15;;;;;;;2.13;0.45;;;12.10;99.90;;;;;;5120365;28;20027;-79
2022/09/02 03:05:41;;;;;;;1.65;0.30;;;12.10;99.90;;;;;;5126330;27;20098;-79
2022/09/02 03:08:08;;;;;;;1.52;0.35;;;12.10;99.90;;;;;;5151296;27;20576;-79
2022/09/02 03:10:35;;;;;;;1.45;0.38;;;12.00;99.90;;;;;;5123709;27;20415;-79
2022/09/02 03:13:02;;;;;;;0.93;0.40;;;12.00;99.90;;;;;;5123993;27;20035;-79
2022/09/02 03:15:28;;;;;;;1.27;0.38;;;11.90;99.90;;;;;;5133608;27;20033;-78
2022/09/02 03:17:55;;;;;;;1.60;1.05;;;11.90;99.90;;;;;;5134522;27;20053;-79
2022/09/02 03:20:22;;;;;;;1.10;0.47;;;11.80;99.90;;;;;;5144745;27;20520;-79
2022/09/02 03:22:49;;;;;;;2.97;0.40;;;11.80;99.90;;;;;;5146373;27;20042;-79
2022/09/02 03:25:19;;;;;;;2.50;0.40;;;11.80;99.90;;;;;;5145225;27;20117;-79
2022/09/02 03:27:45;;;;;;;5.03;0.65;;;11.80;99.90;;;;;;5137946;27;20050;-79
2022/09/02 03:30:15;;;;;;;2.28;0.30;;;11.70;99.90;;;;;;5146385;27;20399;-79
2022/09/02 03:32:41;;;;;;;1.95;0.45;;;11.70;99.90;;;;;;5161925;27;20042;-79
2022/09/02 03:35:11;;;;;;;2.13;0.40;;;11.70;99.90;;;;;;5136344;27;20045;-79
2022/09/02 03:37:38;;;;;;;1.45;0.40;;;11.60;99.90;;;;;;5137949;27;20039;-79
2022/09/02 03:40:06;;;;;;;2.35;0.40;;;11.60;99.90;;;;;;5144097;27;20038;-79
2022/09/02 03:42:31;;;;;;;1.55;0.50;;;11.50;99.90;;;;;;5128522;27;20043;-79
2022/09/02 03:44:57;;;;;;;1.60;0.68;;;11.50;99.90;;;;;;5145411;27;20046;-80
2022/09/02 03:47:23;;;;;;;1.38;0.52;;;11.50;99.90;;;;;;5145229;27;20042;-79
2022/09/02 03:49:49;;;;;;;1.73;1.30;;;11.50;99.90;;;;;;5128498;27;20046;-79
2022/09/02 03:52:15;;;;;;;1.40;0.70;;;11.50;99.90;;;;;;5126352;27;20051;-79
2022/09/02 03:54:41;;;;;;;1.58;0.90;;;11.40;99.90;;;;;;5126640;27;20077;-80
2022/09/02 03:57:06;;;;;;;1.42;0.68;;;11.40;99.90;;;;;;5134984;27;20035;-79
2022/09/02 03:59:32;;;;;;;1.20;0.70;;;11.30;99.90;;;;;;5122595;27;20106;-78
2022/09/02 04:01:57;;;;;;;1.45;0.80;;;11.30;99.90;;;;;;5146345;27;20080;-78
2022/09/02 04:04:23;;;;;;;1.20;0.60;;;11.30;99.90;;;;;;5118665;27;20168;-79
2022/09/02 04:06:49;;;;;;;3.13;0.65;;;11.30;99.90;;;;;;5153781;27;20082;-78
2022/09/02 04:09:14;;;;;;;1.98;0.82;;;11.30;99.90;;;;;;5130551;27;20087;-80
2022/09/02 04:11:42;;;;;;;3.40;0.90;;;11.30;99.90;;;;;;5139951;27;20055;-79
2022/09/02 04:14:08;;;;;;;2.13;0.75;;;11.40;99.90;;;;;;5159340;27;20026;-78
2022/09/02 04:16:34;;;;;;;2.90;0.88;;;11.40;99.90;;;;;;5135137;27;20046;-78
2022/09/02 04:19:01;;;;;;;1.45;0.80;;;11.40;99.90;;;;;;5130332;27;20396;-79
2022/09/02 04:21:28;;;;;;;2.20;0.70;;;11.40;99.90;;;;;;5139120;27;20038;-79
2022/09/02 04:23:55;;;;;;;2.10;0.65;;;11.30;99.90;;;;;;5130452;27;20096;-79
2022/09/02 04:26:21;;;;;;;2.33;1.48;;;11.30;99.90;;;;;;5139461;27;20034;-80
2022/09/02 04:28:48;;;;;;;2.72;0.77;;;11.30;99.90;;;;;;5160389;27;20042;-80
2022/09/02 04:31:16;;;;;;;2.13;0.93;;;11.30;99.90;;;;;;5131171;27;20031;-80
2022/09/02 04:33:42;;;;;;;2.42;0.90;;;11.30;99.90;;;;;;5120809;27;20068;-80
2022/09/02 04:36:11;;;;;;;2.03;1.08;;;11.30;99.90;;;;;;5128472;27;20039;-80
2022/09/02 04:38:37;;;;;;;2.30;1.00;;;11.30;99.90;;;;;;5157864;27;20094;-80
2022/09/02 04:41:08;;;;;;;2.55;0.95;;;11.30;99.90;;;;;;5140394;27;20109;-80
2022/09/02 04:43:34;;;;;;;2.58;0.80;;;11.30;99.90;;;;;;5156819;27;20588;-80
2022/09/02 04:46:04;;;;;;;2.08;0.80;;;11.30;99.90;;;;;;5136723;27;20067;-80
2022/09/02 04:48:31;;;;;;;4.57;1.50;;;11.30;99.90;;;;;;5130080;27;20485;-80
2022/09/02 04:50:57;;;;;;;1.90;0.90;;;11.30;99.90;;;;;;5136088;27;20103;-80
2022/09/02 04:53:22;;;;;;;7.72;2.17;;;11.40;99.90;;;;;;5131067;27;20083;-81
2022/09/02 04:55:48;;;;;;;3.35;0.88;;;11.30;99.90;;;;;;5132908;27;20066;-80
2022/09/02 04:58:15;;;;;;;1.63;1.05;;;11.40;99.90;;;;;;5131628;27;20042;-80
2022/09/02 05:00:41;;;;;;;2.10;0.73;;;11.40;99.90;;;;;;5132974;27;20047;-80
2022/09/02 05:03:07;;;;;;;2.35;0.93;;;11.40;99.90;;;;;;5119347;27;20046;-80
2022/09/02 05:05:34;;;;;;;2.42;1.40;;;11.50;99.90;;;;;;5104484;27;20032;-80
2022/09/02 05:08:01;;;;;;;1.70;0.90;;;11.50;99.90;;;;;;5129019;27;20032;-80
2022/09/02 05:10:27;;;;;;;2.47;0.80;;;11.50;99.90;;;;;;5119607;27;20047;-80
2022/09/02 05:12:54;;;;;;;1.88;0.80;;;11.50;99.90;;;;;;5123414;27;20492;-80
2022/09/02 05:15:19;;;;;;;2.45;0.80;;;11.50;99.90;;;;;;5126734;27;20031;-80
2022/09/02 05:17:45;;;;;;;1.50;0.73;;;11.50;99.90;;;;;;5126404;27;20043;-80
2022/09/02 05:20:11;;;;;;;1.98;0.70;;;11.50;99.90;;;;;;5122122;27;20131;-80
2022/09/02 05:22:36;;;;;;;2.35;0.73;;;11.50;99.90;;;;;;5121389;22;20048;-78
2022/09/02 05:25:06;;;;;;;3.03;1.30;;;11.50;99.90;;;;;;5076257;28;20028;-78
2022/09/02 05:27:32;;;;;;;2.10;1.35;;;11.50;99.90;;;;;;5077219;28;20032;-78
2022/09/02 05:29:58;;;;;;;2.42;1.10;;;11.60;99.90;;;;;;5077031;28;20092;-78
2022/09/02 05:32:24;;;;;;;1.98;0.90;;;11.60;99.90;;;;;;5104275;28;20055;-78
2022/09/02 05:34:50;;;;;;;1.65;0.98;;;11.60;99.90;;;;;;5072212;28;20040;-78
2022/09/02 05:37:16;;;;;;;1.88;0.65;;;11.70;99.90;;;;;;5072961;28;20033;-78
2022/09/02 05:39:41;;;;;;;3.05;0.88;;;11.70;99.90;;;;;;5072683;28;20036;-78
2022/09/02 05:42:07;;;;;;;2.88;1.55;;;11.80;99.90;;;;;;5072657;28;20044;-78
2022/09/02 05:44:33;;;;;;;3.63;0.75;;;11.90;99.90;;;;;;5071697;28;20039;-78
2022/09/02 05:46:58;;;;;;;1.77;1.00;;;12.00;99.90;;;;;;5070873;28;20529;-78
2022/09/02 05:49:25;;;;;;;2.83;1.02;;;12.10;99.90;;;;;;5071709;28;20128;-78
2022/09/02 05:51:57;;;;;;;1.10;0.88;;;12.20;99.90;;;;;;5055355;28;20033;-77
2022/09/02 05:54:24;;;;;;;3.30;0.98;;;12.30;99.90;;;;;;5075475;28;20214;-78
2022/09/02 05:56:52;;;;;;;3.60;1.30;;;12.40;99.90;;;;;;5078454;28;20051;-78
2022/09/02 05:59:19;;;;;;;2.15;0.80;;;12.40;99.90;;;;;;5078646;28;20354;-80
2022/09/02 06:01:46;;;;;;;2.28;1.10;;;12.50;99.90;;;;;;5063689;28;20052;-78
2022/09/02 06:04:12;;;;;;;4.80;1.45;;;12.60;99.90;;;;;;5071689;28;20437;-78
2022/09/02 06:06:38;;;;;;;2.03;0.63;;;12.70;99.90;;;;;;5070624;28;20406;-78
2022/09/02 06:09:06;;;;;;;2.10;0.90;;;12.80;99.90;;;;;;5070049;28;20048;-78
2022/09/02 06:11:33;;;;;;;1.42;0.63;;;12.90;99.90;;;;;;5070599;28;20494;-78
2022/09/02 06:13:58;;;;;;;3.67;1.75;;;13.00;99.90;;;;;;5071032;28;20056;-78
2022/09/02 06:16:25;;;;;;;2.30;1.35;;;13.10;99.90;;;;;;5053872;28;20028;-80
2022/09/02 06:18:50;;;;;;;2.60;0.63;;;13.20;99.90;;;;;;5056006;28;20040;-80
2022/09/02 06:21:19;;;;;;;1.52;0.90;;;13.30;99.90;;;;;;5072545;28;20033;-79
2022/09/02 06:23:45;;;;;;;6.93;2.13;;;13.40;99.90;;;;;;5073371;28;20044;-80
2022/09/02 06:26:12;;;;;;;4.70;1.00;;;13.50;99.90;;;;;;5056300;28;20045;-80
2022/09/02 06:28:39;;;;;;;4.45;1.55;;;13.60;99.90;;;;;;5072820;28;20083;-80
2022/09/02 06:31:31;;;;;;;2.67;0.80;;;13.70;99.90;;;;;;5072870;28;20116;-80
2022/09/02 06:33:57;;;;;;;1.75;0.77;;;13.90;99.90;;;;;;5051451;28;20113;-80
2022/09/02 06:36:26;;;;;;;1.48;0.70;;;13.90;99.90;;;;;;5073353;28;20238;-80
2022/09/02 06:38:53;;;;;;;2.72;1.00;;;14.00;99.90;;;;;;5071054;28;20067;-78
2022/09/02 06:41:28;;;;;;;2.30;0.90;;;14.10;99.90;;;;;;5071716;28;20396;-78
2022/09/02 06:43:55;;;;;;;2.75;1.05;;;14.20;99.90;;;;;;5068251;28;20040;-78
2022/09/02 06:46:29;;;;;;;2.22;0.82;;;14.30;99.90;;;;;;5069349;28;20044;-77
2022/09/02 06:48:55;;;;;;;1.55;0.80;;;14.50;99.90;;;;;;5069500;28;20041;-77
2022/09/02 06:51:34;;;;;;;7.18;1.67;;;14.50;99.90;;;;;;5069770;28;20510;-77
2022/09/02 06:54:00;;;;;;;2.53;0.93;;;14.60;99.90;;;;;;5084118;28;20048;-78
2022/09/02 06:56:25;;;;;;;2.83;0.80;;;14.70;99.90;;;;;;5069824;28;20035;-78
2022/09/02 06:58:51;;;;;;;2.15;0.90;;;14.70;99.90;;;;;;5069499;28;20123;-77
2022/09/02 07:01:23;;;;;;;2.22;0.88;;;14.80;99.90;;;;;;5052920;28;20040;-77
2022/09/02 07:06:36;;;;;;;2.83;0.90;;;15.00;99.90;;;;;;5069726;28;20048;-77
2022/09/02 07:09:03;;;;;;;1.92;0.85;;;15.10;99.90;;;;;;5068836;28;20474;-77
2022/09/02 07:11:29;;;;;;;3.50;1.52;;;15.20;99.90;;;;;;5068802;28;20115;-79
2022/09/02 07:13:55;;;;;;;1.65;0.95;;;15.30;99.90;;;;;;5049728;28;20167;-77
2022/09/02 07:16:20;;;;;;;3.92;0.80;;;15.40;99.90;;;;;;5064776;28;20083;-77
2022/09/02 07:18:46;;;;;;;1.45;0.80;;;15.50;99.90;;;;;;5048457;28;20044;-78
2022/09/02 07:21:12;;;;;;;2.10;0.93;;;15.70;99.90;;;;;;5069325;28;20040;-77
2022/09/02 07:23:38;;;;;;;3.13;0.75;;;15.80;99.90;;;;;;5068995;28;20040;-77
2022/09/02 07:26:09;;;;;;;4.57;0.98;;;16.00;99.90;;;;;;5069434;28;20072;-77
2022/09/02 07:28:35;;;;;;;1.73;1.00;;;16.20;99.90;;;;;;5068944;28;20142;-77
2022/09/02 07:31:00;;;;;;;2.17;0.82;;;16.60;99.90;;;;;;5052844;28;20044;-78
2022/09/02 07:33:26;;;;;;;1.58;0.68;;;16.80;99.90;;;;;;5069400;28;20068;-78
2022/09/02 07:35:51;;;;;;;3.60;0.93;;;17.00;99.90;;;;;;5068756;28;20055;-78
2022/09/02 07:38:18;;;;;;;3.17;0.70;;;17.10;99.90;;;;;;5067992;28;20415;-78
2022/09/02 07:40:45;;;;;;;2.25;0.90;;;17.40;99.90;;;;;;5069915;28;20518;-79
2022/09/02 07:43:11;;;;;;;2.83;0.70;;;17.50;99.90;;;;;;5070249;28;20135;-78
2022/09/02 07:45:37;;;;;;;2.30;0.57;;;17.70;99.90;;;;;;5069208;28;20469;-79
2022/09/02 07:48:07;;;;;;;1.48;0.50;;;17.80;99.90;;;;;;5052204;28;20498;-78
2022/09/02 07:50:34;;;;;;;1.13;0.65;;;17.90;99.90;;;;;;5068887;28;20085;-78
2022/09/02 07:53:05;;;;;;;1.48;0.73;;;18.10;99.90;;;;;;5055402;28;20066;-78
2022/09/02 07:55:31;;;;;;;1.83;0.57;;;18.20;99.90;;;;;;5072219;28;20037;-77
2022/09/02 07:57:56;;;;;;;7.25;0.93;;;18.40;99.90;;;;;;5057008;28;20478;-75
2022/09/02 08:00:26;;;;;;;2.15;0.60;;;18.50;99.90;;;;;;5073332;28;20040;-75
2022/09/02 08:02:52;;;;;;;1.70;0.60;;;18.60;99.90;;;;;;5072833;28;20075;-75
2022/09/02 08:05:18;;;;;;;5.40;0.50;;;18.80;99.90;;;;;;5072403;28;20575;-75
2022/09/02 08:07:43;;;;;;;7.97;2.20;;;18.90;99.90;;;;;;5072370;28;20080;-74
2022/09/02 08:10:11;;;;;;;4.80;0.52;;;19.10;99.90;;;;;;5051279;28;20068;-75
2022/09/02 08:12:40;;;;;;;3.78;1.10;;;19.30;99.90;;;;;;5067981;28;20059;-74
2022/09/02 08:15:06;;;;;;;5.65;0.77;;;19.40;99.90;;;;;;5071668;28;20044;-75
2022/09/02 08:17:32;;;;;;;1.23;0.63;;;19.50;99.90;;;;;;5072984;28;20032;-78
2022/09/02 08:19:58;;;;;;;2.40;0.45;;;19.60;99.90;;;;;;5073559;28;20040;-76
2022/09/02 08:22:24;;;;;;;1.75;0.40;;;19.70;99.90;;;;;;5072514;28;20056;-76
2022/09/02 08:24:50;;;;;;;1.23;0.55;;;19.80;99.90;;;;;;5071759;28;20049;-77
2022/09/02 08:27:15;;;;;;;2.28;0.50;;;20.00;99.90;;;;;;5073672;28;20039;-76
2022/09/02 08:29:41;;;;;;;8.38;1.25;;;20.10;99.90;;;;;;5071900;28;20514;-76
2022/09/02 08:32:07;;;;;;;3.95;0.93;;;20.30;99.90;;;;;;5072091;28;20044;-78
2022/09/02 08:34:33;;;;;;;1.20;0.50;;;20.40;99.90;;;;;;5071446;28;20037;-77
2022/09/02 08:36:58;;;;;;;10.20;0.93;;;20.50;99.90;;;;;;5072121;28;20043;-76
2022/09/02 08:39:24;;;;;;;4.40;0.70;;;20.60;99.90;;;;;;5072074;28;20044;-76
2022/09/02 08:41:59;;;;;;;3.20;0.50;;;20.60;99.90;;;;;;5072292;28;20072;-76
2022/09/02 08:44:26;;;;;;;;;;;20.70;99.30;;;;;;5071972;28;20040;-76
2022/09/02 08:46:58;;;;;;;2.33;0.50;;;20.80;98.30;;;;;;5071768;28;20014;-75
2022/09/02 08:49:30;;;;;;;1.33;0.30;;;20.90;98.80;;;;;;5071908;28;20502;-75
2022/09/02 08:52:00;;;;;;;0.80;0.40;;;21.00;98.50;;;;;;5073284;28;20043;-76
2022/09/02 08:54:47;;;;;;;1.70;0.50;;;21.10;98.70;;;;;;5071512;28;20033;-75
2022/09/02 08:57:13;;;;;;;3.80;0.60;;;21.30;97.50;;;;;;5061908;28;20116;-76
2022/09/02 08:59:39;;;;;;;3.83;0.80;;;21.40;97.90;;;;;;5069762;28;20124;-76
2022/09/02 09:02:08;;;;;;;1.88;0.63;;;21.50;97.30;;;;;;5063002;28;20041;-76
2022/09/02 09:04:58;;;;;;;1.00;0.40;;;21.70;96.90;;;;;;5070379;28;20083;-76
2022/09/02 09:07:28;;;;;;;1.40;0.50;;;21.90;95.60;;;;;;5064927;28;20040;-75
2022/09/02 09:10:14;;;;;;;1.25;0.43;;;22.00;95.80;;;;;;5069874;28;20040;-74
2022/09/02 09:13:02;;;;;;;2.33;0.57;;;22.00;95.20;;;;;;5071711;28;20504;-74
2022/09/02 09:15:42;;;;;;;3.22;0.50;;;22.20;93.30;;;;;;5070317;28;20042;-74
2022/09/02 09:18:18;;;;;;;8.85;0.85;;;22.20;93.80;;;;;;5071389;28;20036;-75
2022/09/02 09:20:44;;;;;;;2.58;0.47;;;22.30;93.50;;;;;;5071277;28;20044;-74
2022/09/02 09:23:26;;;;;;;7.97;1.13;;;22.50;93.10;;;;;;5054617;28;20051;-75
2022/09/02 09:25:58;;;;;;;2.42;0.38;;;22.70;92.20;;;;;;5076123;28;20052;-75
2022/09/02 09:28:24;;;;;;;2.80;0.55;;;22.90;92.10;;;;;;5075629;28;20052;-76
2022/09/02 09:30:49;;;;;;;6.57;1.42;;;23.20;91.50;;;;;;5072124;28;20048;-77
2022/09/02 09:33:21;;;;;;;3.78;0.63;;;23.30;90.70;;;;;;5071143;28;20040;-77
2022/09/02 09:35:52;;;;;;;8.63;5.55;;;23.40;89.50;;;;;;5070793;28;20036;-77
2022/09/02 09:38:29;;;;;;;3.97;1.35;;;23.50;87.90;;;;;;5064131;28;20041;-77
2022/09/02 09:41:13;;;;;;;1.80;0.40;;;23.50;85.50;;;;;;5070814;28;20061;-77
2022/09/02 09:43:38;;;;;;;7.18;0.50;;;23.50;80.50;;;;;;5072134;28;20036;-77
2022/09/02 09:46:27;;;;;;;1.15;0.40;;;23.50;82.10;;;;;;5063788;28;20127;-78
2022/09/02 09:48:53;;;;;;;1.88;0.30;;;23.70;81.70;;;;;;5072047;28;20739;-78
2022/09/02 09:51:19;;;;;;;2.45;0.52;;;23.80;79.90;;;;;;5071078;28;20065;-77
2022/09/02 09:53:45;;;;;;;4.15;0.38;;;23.90;80.10;;;;;;5070774;28;20163;-77
2022/09/02 09:56:14;;;;;;;4.03;0.50;;;23.90;81.20;;;;;;5069989;28;20119;-77
2022/09/02 09:58:40;;;;;;;2.97;0.38;;;24.20;78.00;;;;;;5070397;28;20055;-78
2022/09/02 10:01:14;;;;;;;7.25;1.17;;;24.40;75.40;;;;;;5071808;28;20053;-77
2022/09/02 10:04:02;;;;;;;2.45;0.40;;;24.40;74.40;;;;;;5072029;28;20494;-78
2022/09/02 10:06:30;;;;;;;2.40;0.30;;;24.20;74.10;;;;;;5060751;28;20050;-77
2022/09/02 10:09:03;;;;;;;1.30;0.20;;;24.20;71.80;;;;;;5069466;28;20494;-77
2022/09/02 10:11:31;;;;;;;3.20;0.30;;;24.20;71.60;;;;;;5070471;28;20044;-76
2022/09/02 10:14:08;;;;;;;3.67;0.32;;;24.30;71.70;;;;;;5063810;28;20082;-77
2022/09/02 10:16:53;;;;;;;3.22;1.33;;;24.50;69.40;;;;;;5059188;28;20040;-77
2022/09/02 10:19:18;;;;;;;1.52;0.22;;;24.50;68.20;;;;;;5062662;28;20047;-76
2022/09/02 10:22:21;;;;;;;0.40;0.20;;;24.50;69.50;;;;;;5070323;28;20410;-75
2022/09/02 10:25:09;;;;;;;2.72;0.45;;;24.70;67.50;;;;;;5066243;28;20056;-75
2022/09/02 10:28:03;;;;;;;2.80;0.20;;;24.80;67.90;;;;;;5064369;28;20076;-76
2022/09/02 10:30:35;;;;;;;1.10;0.52;;;24.90;66.40;;;;;;5053231;28;20036;-75
2022/09/02 10:33:18;;;;;;;1.33;0.30;;;24.80;65.80;;;;;;5069682;28;20449;-76
2022/09/02 10:36:10;;;;;;;2.00;0.20;;;24.90;65.60;;;;;;5070181;28;20036;-76
2022/09/02 10:38:41;;;;;;;4.15;0.30;;;25.20;61.90;;;;;;5064652;28;20086;-75
2022/09/02 10:41:35;;;;;;;4.93;0.47;;;25.40;62.50;;;;;;5069471;28;20132;-76
2022/09/02 10:44:20;;;;;;;1.13;0.20;;;25.70;60.90;;;;;;5068816;28;20040;-75
2022/09/02 10:46:53;;;;;;;4.53;0.20;;;25.90;61.40;;;;;;5069936;28;20103;-77
2022/09/02 10:50:09;;;;;;;1.33;0.20;;;25.90;59.50;;;;;;5069902;28;20052;-77
2022/09/02 10:52:47;;;;;;;1.38;0.10;;;26.10;58.30;;;;;;5035092;28;20080;-76
2022/09/02 10:55:40;;;;;;;4.35;0.30;;;26.10;58.60;;;;;;5062820;28;20116;-76
2022/09/02 10:58:38;;;;;;;1.50;0.20;;;26.10;58.90;;;;;;5048849;28;20063;-77
2022/09/02 11:01:09;;;;;;;1.95;0.20;;;25.90;56.80;;;;;;5069700;28;20104;-77
2022/09/02 11:04:14;;;;;;;0.80;0.20;;;25.80;58.00;;;;;;5069287;28;20043;-77
2022/09/02 11:06:42;;;;;;;1.65;0.30;;;25.90;56.40;;;;;;5036777;28;20402;-77
2022/09/02 11:09:36;;;;;;;6.55;0.52;;;25.90;57.90;;;;;;5069857;28;20101;-77
2022/09/02 11:12:21;;;;;;;10.35;1.42;;;26.20;56.50;;;;;;5067684;28;20115;-76
2022/09/02 11:14:50;;;;;;;13.25;0.90;;;26.70;54.90;;;;;;5069009;28;20048;-76
2022/09/02 11:17:25;;;;;;;6.60;0.30;;;26.90;55.90;;;;;;5053367;28;20044;-77
2022/09/02 11:20:29;;;;;;;1.23;0.30;;;27.30;54.90;;;;;;5070932;28;20037;-78
2022/09/02 11:23:05;;;;;;;0.85;0.20;;;27.20;51.40;;;;;;5059155;23;20065;-80
2022/09/02 11:25:37;;;;;;;1.67;0.20;;;27.00;53.90;;;;;;5015662;28;20456;-80
2022/09/02 11:28:40;;;;;;;2.40;0.20;;;26.80;53.50;;;;;;5034431;28;20049;-79
2022/09/02 11:31:14;;;;;;;1.13;0.10;;;26.80;53.20;;;;;;5033902;28;20084;-80
2022/09/02 11:33:53;;;;;;;3.00;0.32;;;26.70;52.90;;;;;;5055357;28;20077;-80
2022/09/02 11:36:19;;;;;;;3.78;0.50;;;26.80;52.40;;;;;;5015541;28;20047;-79
2022/09/02 11:38:57;;;;;;;4.72;1.65;;;26.90;54.00;;;;;;5014720;28;20121;-79
2022/09/02 11:41:25;;;;;;;0.85;0.35;;;27.00;53.00;;;;;;5014840;28;20042;-80
2022/09/02 11:43:57;;;;;;;8.07;0.43;;;27.30;51.70;;;;;;5014483;28;20060;-80
2022/09/02 11:46:41;;;;;;;4.90;0.30;;;27.60;52.30;;;;;;5013097;28;20041;-79
2022/09/02 11:49:14;;;;;;;17.17;1.13;;;27.80;51.20;;;;;;4994916;28;20046;-79
2022/09/02 11:52:10;;;;;;;12.63;1.15;;;28.00;51.40;;;;;;4995680;28;20106;-80
2022/09/02 11:54:47;;;;;;;0.75;0.20;;;28.30;49.40;;;;;;4994208;28;20038;-78
2022/09/02 11:57:22;;;;;;;3.45;0.20;;;28.10;48.70;;;;;;4993804;28;20049;-78
2022/09/02 11:59:51;;;;;;;2.42;0.20;;;27.90;49.70;;;;;;4993427;28;20078;-78
2022/09/02 12:02:57;;;;;;;3.95;0.22;;;27.90;49.10;;;;;;4993431;28;20084;-77
2022/09/02 12:05:29;;;;;;;10.93;0.65;;;27.80;48.50;;;;;;4994573;28;20041;-78
2022/09/02 12:07:56;;;;;;;3.53;0.20;;;27.80;49.40;;;;;;4993130;28;20049;-78
2022/09/02 12:10:41;;;;;;;3.15;0.45;;;28.00;48.80;;;;;;4992735;28;20053;-78
2022/09/02 12:13:08;;;;;;;1.20;0.20;;;28.30;47.60;;;;;;4993791;28;20121;-80
2022/09/02 12:15:34;;;;;;;9.80;0.20;;;28.40;48.80;;;;;;4994479;28;20042;-80
2022/09/02 12:18:27;;;;;;;18.60;1.75;;;28.40;48.10;;;;;;5013299;28;20038;-80
2022/09/02 12:21:04;;;;;;;11.60;1.25;;;28.50;48.00;;;;;;4995002;28;20077;-80
2022/09/02 12:23:55;;;;;;;1.17;0.30;;;28.70;47.70;;;;;;4993395;28;20398;-80
2022/09/02 12:26:29;;;;;;;3.55;0.52;;;29.00;45.50;;;;;;5054316;28;20488;-79
2022/09/02 12:29:13;;;;;;;1.70;0.20;;;29.20;46.30;;;;;;5013688;28;20080;-79
2022/09/02 12:31:42;;;;;;;1.38;0.20;;;29.00;45.80;;;;;;5056580;28;20435;-79
2022/09/02 12:34:19;;;;;;;8.32;0.70;;;28.70;46.70;;;;;;5022830;28;20045;-80
2022/09/02 12:36:50;;;;;;;5.93;0.77;;;28.90;46.70;;;;;;5072994;28;20560;-81
2022/09/02 12:39:22;;;;;;;2.28;0.30;;;29.20;46.70;;;;;;5015816;28;20068;-80
2022/09/02 12:42:07;;;;;;;9.70;1.08;;;29.30;45.30;;;;;;5074327;28;20071;-80
2022/09/02 12:44:47;;;;;;;13.00;1.35;;;29.70;45.00;;;;;;5062776;28;20051;-80
2022/09/02 12:47:18;;;;;;;5.07;0.38;;;30.10;44.50;;;;;;5066001;28;20093;-81
2022/09/02 12:49:53;;;;;;;1.25;0.20;;;30.30;44.30;;;;;;5081848;28;20054;-81
2022/09/02 12:52:38;;;;;;;0.68;0.20;;;30.30;44.40;;;;;;4995775;28;20046;-80
2022/09/02 12:55:25;;;;;;;0.82;0.22;;;30.20;42.50;;;;;;5019266;28;20053;-79
2022/09/02 12:57:53;;;;;;;4.57;0.30;;;29.80;43.00;;;;;;5031643;28;20034;-79
2022/09/02 13:00:53;;;;;;;4.03;0.55;;;29.60;43.80;;;;;;5050212;28;20046;-77
2022/09/02 13:03:22;;;;;;;1.58;0.20;;;29.90;43.20;;;;;;5008647;28;20053;-78
2022/09/02 13:06:11;;;;;;;2.05;0.10;;;29.70;43.00;;;;;;5067587;27;20052;-77
2022/09/02 13:08:47;;;;;;;2.90;0.30;;;29.60;42.50;;;;;;5086271;28;20064;-78